Data for 06/25/2013

Time Sea-Level Adjusted Pressure Absolute Pressure Temperature Relative Humidity Dew Point   
(mb) (inHg) (mb) (inHg) (C) (F) (%) (C) (F)
00:05 1011 29.85 841 24.83 16 60.9 54 6.8 44.3
00:10 1011 29.85 841 24.83 15.8 60.4 53 6.3 43.3
00:15 1011 29.85 841 24.83 15.8 60.4 54 6.4 43.6
00:20 1012 29.88 841 24.83 15.4 59.7 55 6.6 43.9
00:25 1012 29.88 841 24.83 15.3 59.5 53 6 42.7
00:30 1012 29.88 841 24.83 15.5 59.8 53 5.9 42.6
00:35 1012 29.88 841 24.83 15.5 60 51 5.6 42.1
00:40 1012 29.88 841 24.83 15.6 60.1 52 5.9 42.6
00:45 1012 29.88 841 24.83 15.5 59.9 53 6 42.7
00:50 1012 29.88 841 24.83 15.5 59.8 53 5.9 42.7
00:55 1012 29.88 841 24.83 15.4 59.7 53 5.9 42.6
01:00 1012 29.88 841 24.83 15.3 59.5 52 5.7 42.2
01:05 1012 29.88 841 24.83 15.3 59.5 52 5.5 41.9
01:10 1012 29.88 841 24.83 15.4 59.7 51 5.3 41.5
01:15 1012 29.88 841 24.83 15.5 59.8 49 5 41
01:20 1012 29.88 841 24.83 15.6 60.1 48 4.9 40.8
01:25 1012 29.88 841 24.83 15.7 60.2 49 5.1 41.1
01:30 1012 29.88 841 24.83 15.5 60 50 5.1 41.2
01:35 1012 29.88 841 24.83 15.5 59.8 49 5 41
01:40 1012 29.88 841 24.83 15.3 59.5 61 7.8 46.1
01:45 1012 29.88 841 24.83 14.4 58 65 8 46.4
01:50 1012 29.88 841 24.83 14 57.1 67 8 46.5
01:55 1012 29.88 841 24.83 13.8 56.9 65 7.5 45.5
02:00 1012 29.88 841 24.83 13.8 56.8 66 7.7 45.8
02:05 1012 29.88 841 24.83 13.8 56.8 65 7.3 45.1
02:10 1012 29.88 841 24.83 14.1 57.4 59 6.3 43.4
02:15 1012 29.88 841 24.83 14.5 58.1 60 7 44.7
02:20 1012 29.88 841 24.83 14.4 57.9 62 7.4 45.2
02:25 1012 29.88 841 24.83 14.2 57.6 62 7 44.6
02:30 1012 29.88 841 24.83 14.2 57.5 62 7 44.7
02:35 1012 29.88 841 24.83 14.1 57.5 62 6.9 44.5
02:40 1012 29.88 842 24.86 14.2 57.5 62 7.1 44.8
02:45 1012 29.88 841 24.83 14.2 57.5 62 7 44.7
02:50 1012 29.88 842 24.86 14.1 57.4 63 7.2 44.9
02:55 1012 29.88 842 24.86 14.1 57.3 64 7.3 45.2
03:00 1012 29.88 842 24.86 14.1 57.3 61 6.8 44.3
03:05 1012 29.88 842 24.86 14.1 57.4 62 7.1 44.8
03:10 1012 29.88 842 24.86 14.1 57.4 61 6.8 44.2
03:15 1012 29.88 842 24.86 14.2 57.5 61 6.7 44.1
03:20 1013 29.91 842 24.86 14.3 57.8 60 6.7 44.1
03:25 1013 29.91 842 24.86 14.3 57.8 61 7 44.5
03:30 1013 29.91 842 24.86 14.1 57.5 61 6.7 44.1
03:35 1013 29.91 842 24.86 14.1 57.3 62 6.9 44.4
03:40 1013 29.91 842 24.86 14 57.2 61 6.7 44.1
03:45 1013 29.91 842 24.86 13.9 57 62 6.8 44.3
03:50 1013 29.91 842 24.86 13.8 56.9 62 6.8 44.3
03:55 1013 29.91 842 24.86 13.8 56.8 62 6.8 44.2
04:00 1013 29.91 842 24.86 13.8 56.8 63 6.8 44.3
04:05 1013 29.91 842 24.86 13.7 56.6 63 6.8 44.3
04:10 1013 29.91 842 24.86 13.6 56.5 67 7.6 45.7
04:15 1013 29.91 842 24.86 13.5 56.3 68 7.7 45.9
04:20 1013 29.91 842 24.86 13.3 55.9 70 7.9 46.3
04:25 1013 29.91 842 24.86 13 55.4 68 7.2 45
04:30 1013 29.91 842 24.86 13.3 55.9 69 7.9 46.1
04:35 1013 29.91 842 24.86 13.3 56 69 7.9 46.2
04:40 1013 29.91 842 24.86 13.3 55.9 69 7.8 46
04:45 1013 29.91 843 24.89 13.3 55.9 68 7.6 45.7
04:50 1013 29.91 843 24.89 13.3 55.9 68 7.6 45.6
04:55 1013 29.91 843 24.89 13.3 55.9 68 7.5 45.5
05:00 1014 29.94 843 24.89 13.3 56 68 7.7 45.8
05:05 1014 29.94 843 24.89 13.3 56 68 7.6 45.6
05:10 1014 29.94 843 24.89 13.3 56 67 7.5 45.5
05:15 1014 29.94 843 24.89 13.3 55.9 67 7.4 45.3
05:20 1014 29.94 843 24.89 13.2 55.8 67 7.3 45.2
05:25 1014 29.94 843 24.89 13.1 55.5 67 7.2 45
05:30 1014 29.94 843 24.89 13.1 55.6 68 7.4 45.3
05:35 1014 29.94 843 24.89 13.1 55.6 67 7.2 45
05:40 1014 29.94 843 24.89 13.2 55.7 67 7.2 45
05:45 1014 29.94 843 24.89 13.2 55.7 67 7.2 44.9
05:50 1014 29.94 843 24.89 13.2 55.7 66 7 44.5
05:55 1014 29.94 843 24.89 13.2 55.7 66 7 44.6
06:00 1014 29.94 843 24.89 13.2 55.8 66 7.1 44.8
06:05 1014 29.94 843 24.89 13.3 55.9 66 7.2 45
06:10 1014 29.94 843 24.89 13.3 55.9 65 7 44.5
06:15 1014 29.94 843 24.89 13.4 56 66 7.3 45.1
06:20 1014 29.94 844 24.92 13.4 56.2 66 7.2 44.9
06:25 1014 29.94 844 24.92 13.6 56.4 65 7.1 44.8
06:30 1014 29.94 844 24.92 13.8 56.8 64 7.2 44.9
06:35 1014 29.94 844 24.92 13.9 57 63 7.1 44.7
06:40 1014 29.94 844 24.92 14 57.2 63 7.1 44.8
06:45 1014 29.94 844 24.92 14 57.3 62 7 44.6
06:50 1014 29.94 844 24.92 14.1 57.4 64 7.5 45.4
06:55 1014 29.94 844 24.92 14.4 57.9 63 7.5 45.4
07:00 1014 29.94 844 24.92 14.6 58.3 63 7.8 46.1
07:05 1014 29.94 844 24.92 14.5 58 63 7.5 45.6
07:10 1014 29.94 844 24.92 14.6 58.3 63 7.8 46
07:15 1014 29.94 844 24.92 15.4 59.6 58 7.2 44.9
07:20 1015 29.97 844 24.92 15.9 60.6 58 7.7 45.9
07:25 1015 29.97 844 24.92 15.9 60.6 55 7.1 44.7
07:30 1015 29.97 844 24.92 16.1 60.9 54 6.7 44.1
07:35 1015 29.97 844 24.92 16 60.8 54 6.9 44.4
07:40 1015 29.97 844 24.92 16.1 60.9 54 6.9 44.5
07:45 1015 29.97 844 24.92 16.2 61.1 51 6.1 42.9
07:50 1015 29.97 844 24.92 16.2 61.1 53 6.8 44.2
07:55 1015 29.97 844 24.92 16.1 61.1 54 6.9 44.4
08:00 1015 29.97 844 24.92 15.9 60.6 56 7.1 44.8
08:05 1015 29.97 844 24.92 15.8 60.4 55 6.8 44.3
08:10 1015 29.97 844 24.92 15.9 60.5 54 6.7 44
08:15 1015 29.97 844 24.92 16 60.9 50 5.7 42.3
08:20 1015 29.97 844 24.92 16.3 61.4 43 3.9 39.1
08:25 1015 29.97 844 24.92 16.3 61.4 53 6.9 44.4
08:30 1015 29.97 844 24.92 16.2 61.2 48 5.3 41.5
08:35 1015 29.97 844 24.92 16.6 62 41 3.4 38.1
08:40 1015 29.97 844 24.92 17.5 63.5 40 3.7 38.7
08:45 1015 29.97 844 24.92 18 64.3 41 4.5 40.1
08:50 1015 29.97 844 24.92 18.5 65.3 37 3.6 38.4
08:55 1015 29.97 844 24.92 18.4 65 36 3.1 37.5
09:00 1015 29.97 844 24.92 18.2 64.8 36 3.1 37.7
09:05 1015 29.97 844 24.92 18.3 64.9 36 3.1 37.6
09:10 1015 29.97 844 24.92 18.1 64.6 36 3.1 37.5
09:15 1015 29.97 844 24.92 18.4 65.1 36 3.3 38
09:20 1015 29.97 844 24.92 18.6 65.5 34 2.6 36.7
09:25 1015 29.97 844 24.92 18.9 66 35 3.2 37.8
09:30 1015 29.97 844 24.92 19.2 66.5 36 3.8 38.8
09:35 1015 29.97 844 24.92 19.6 67.4 35 4 39.1
09:40 1015 29.97 844 24.92 19.9 67.7 34 3.7 38.7
09:45 1015 29.97 844 24.92 20.1 68.2 33 3.5 38.4
09:50 1015 29.97 844 24.92 20.3 68.5 34 4 39.2
09:55 1015 29.97 844 24.92 20.3 68.6 33 3.7 38.7
10:00 1015 29.97 844 24.92 20.2 68.4 34 3.8 38.9
10:05 1015 29.97 844 24.92 20.5 68.9 34 4.2 39.5
10:10 1015 29.97 844 24.92 20.7 69.2 32 3.8 38.8
10:15 1015 29.97 844 24.92 20.5 68.9 32 3.3 38
10:20 1015 29.97 844 24.92 20.6 69 32 3.5 38.3
10:25 1015 29.97 844 24.92 20.7 69.2 30 2.8 37
10:30 1015 29.97 844 24.92 20.9 69.7 30 3.1 37.6
10:35 1015 29.97 844 24.92 20.6 69 32 3.5 38.4
10:40 1015 29.97 844 24.92 20.8 69.4 29 2.4 36.3
10:45 1015 29.97 844 24.92 20.4 68.8 30 2.5 36.6
10:50 1015 29.97 844 24.92 20.5 69 30 2.6 36.8
10:55 1015 29.97 844 24.92 20.9 69.6 30 2.8 37.1
11:00 1015 29.97 844 24.92 21.1 70.1 28 2.1 35.7
11:05 1015 29.97 844 24.92 20.9 69.5 30 2.9 37.2
11:10 1015 29.97 844 24.92 20.3 68.5 33 3.5 38.3
11:15 1015 29.97 844 24.92 20.3 68.5 33 3.6 38.5
11:20 1015 29.97 844 24.92 20.2 68.4 33 3.5 38.3
11:25 1015 29.97 844 24.92 21.1 69.9 32 3.8 38.9
11:30 1015 29.97 844 24.92 21.3 70.3 30 3.3 38
11:35 1015 29.97 844 24.92 21.2 70.1 30 3.1 37.5
11:40 1015 29.97 844 24.92 21.9 71.4 28 2.9 37.3
11:45 1015 29.97 844 24.92 22.4 72.3 28 3.3 38
11:50 1015 29.97 844 24.92 22.2 72 30 3.8 38.9
11:55 1015 29.97 844 24.92 22.4 72.3 29 3.7 38.7
12:00 1015 29.97 844 24.92 22.3 72.2 29 3.4 38.2
12:05 1015 29.97 844 24.92 22.4 72.3 27 2.9 37.2
12:10 1015 29.97 844 24.92 22.5 72.5 29 3.9 39.1
12:15 1015 29.97 844 24.92 22.6 72.7 30 4.1 39.4
12:20 1015 29.97 844 24.92 22.6 72.7 29 3.9 39
12:25 1015 29.97 844 24.92 23 73.3 28 3.6 38.4
12:30 1015 29.97 844 24.92 22.9 73.2 27 2.9 37.2
12:35 1015 29.97 844 24.92 22.9 73.2 28 3.6 38.5
12:40 1014 29.94 844 24.92 22.9 73.1 27 3 37.3
12:45 1014 29.94 844 24.92 22.9 73.3 28 3.6 38.5
12:50 1014 29.94 844 24.92 23.1 73.5 28 3.6 38.4
12:55 1014 29.94 844 24.92 23 73.4 27 3.2 37.8
13:00 1014 29.94 844 24.92 23.1 73.5 27 3.2 37.8
13:05 1014 29.94 844 24.92 23.6 74.6 26 3.4 38.1
13:10 1014 29.94 844 24.92 23.6 74.5 28 4.2 39.5
13:15 1014 29.94 843 24.89 23.3 73.9 27 3.2 37.8
13:20 1014 29.94 843 24.89 23.1 73.6 26 2.9 37.3
13:25 1014 29.94 843 24.89 23.3 73.9 27 3.3 38
13:30 1014 29.94 843 24.89 23.9 75.1 25 3 37.3
13:35 1014 29.94 844 24.92 24.1 75.3 25 3.3 37.9
13:40 1014 29.94 844 24.92 24.1 75.3 24 2.6 36.6
13:45 1014 29.94 844 24.92 23.6 74.4 24 1.9 35.5
13:50 1014 29.94 844 24.92 23.8 74.8 26 3.2 37.8
13:55 1014 29.94 844 24.92 23.4 74.1 27 3.5 38.2
14:00 1014 29.94 844 24.92 22.8 73.1 28 3.6 38.5
14:05 1014 29.94 844 24.92 22.8 73.1 27 3.1 37.6
14:10 1014 29.94 844 24.92 23.1 73.6 28 3.6 38.4
14:15 1014 29.94 844 24.92 23.3 74 28 3.9 39
14:20 1014 29.94 843 24.89 23.6 74.5 27 3.6 38.4
14:25 1014 29.94 843 24.89 23 73.3 26 2.6 36.8
14:30 1014 29.94 843 24.89 22.6 72.6 25 2 35.5
14:35 1014 29.94 843 24.89 22.6 72.7 27 3.1 37.6
14:40 1014 29.94 844 24.92 23.3 74 28 3.9 39.1
14:45 1014 29.94 844 24.92 23 73.3 28 3.5 38.3
14:50 1014 29.94 844 24.92 22.9 73.1 29 4.1 39.3
14:55 1014 29.94 844 24.92 22.9 73.2 29 4.1 39.5
15:00 1014 29.94 844 24.92 23.4 74.2 28 3.9 39.1
15:05 1014 29.94 843 24.89 23 73.5 27 3.3 38
15:10 1014 29.94 843 24.89 22.7 72.8 25 1.6 35
15:15 1014 29.94 843 24.89 22.3 72.1 25 1.7 35
15:20 1014 29.94 843 24.89 22.4 72.2 24 0.9 33.5
15:25 1014 29.94 843 24.89 23.3 74 25 2.2 36
15:30 1014 29.94 843 24.89 24.1 75.5 22 1.6 34.9
15:35 1014 29.94 843 24.89 23.8 74.8 25 2.6 36.7
15:40 1014 29.94 843 24.89 23.5 74.3 26 3.4 38
15:45 1014 29.94 843 24.89 23.4 74 27 3.3 38
15:50 1014 29.94 843 24.89 23.2 73.7 27 3.4 38.2
15:55 1014 29.94 843 24.89 23.1 73.7 27 3.6 38.5
16:00 1014 29.94 843 24.89 22.8 73 27 2.8 37.1
16:05 1014 29.94 843 24.89 23.2 73.8 26 3.1 37.5
16:10 1014 29.94 843 24.89 22.9 73.1 29 4.2 39.6
16:15 1014 29.94 843 24.89 22.3 72.2 31 4.5 40.1
16:20 1014 29.94 843 24.89 21.9 71.4 33 5 41.1
16:25 1014 29.94 843 24.89 21.7 71.1 33 4.8 40.7
16:30 1014 29.94 843 24.89 21.7 71.1 32 4.6 40.3
16:35 1014 29.94 843 24.89 21.7 71.1 33 5.1 41.1
16:40 1014 29.94 843 24.89 21.6 70.9 34 5.2 41.4
16:45 1014 29.94 843 24.89 21.5 70.8 33 4.9 40.8
16:50 1014 29.94 843 24.89 21.6 70.8 34 5.2 41.4
16:55 1014 29.94 843 24.89 21.4 70.5 33 4.7 40.4
17:00 1014 29.94 843 24.89 21.6 70.9 33 4.7 40.5
17:05 1014 29.94 843 24.89 21.5 70.6 33 4.8 40.6
17:10 1014 29.94 843 24.89 21.1 70 35 5.1 41.2
17:15 1014 29.94 843 24.89 21 69.8 37 6 42.8
17:20 1014 29.94 843 24.89 21.1 69.9 36 5.8 42.4
17:25 1014 29.94 843 24.89 21 69.9 36 5.8 42.4
17:30 1014 29.94 843 24.89 20.9 69.6 36 5.3 41.6
17:35 1014 29.94 843 24.89 20.8 69.5 33 4.3 39.7
17:40 1014 29.94 844 24.92 20.9 69.6 33 4.4 39.9
17:45 1014 29.94 844 24.92 21 69.7 34 4.6 40.2
17:50 1014 29.94 844 24.92 20.9 69.6 33 4.4 39.9
17:55 1014 29.94 844 24.92 21 69.8 34 4.5 40.1
18:00 1014 29.94 844 24.92 20.9 69.6 35 5 40.9
18:05 1015 29.97 844 24.92 20.8 69.4 37 5.9 42.6
18:10 1015 29.97 844 24.92 20.2 68.3 43 7.2 45
18:15 1015 29.97 844 24.92 19.4 66.9 45 7.4 45.4
18:20 1014 29.94 844 24.92 19 66.3 48 7.8 46
18:25 1014 29.94 844 24.92 18.8 65.8 49 8.1 46.5
18:30 1015 29.97 844 24.92 18.6 65.5 50 8.1 46.6
18:35 1015 29.97 844 24.92 18.6 65.4 50 8 46.3
18:40 1015 29.97 844 24.92 18.5 65.4 49 7.8 46.1
18:45 1015 29.97 844 24.92 18.6 65.4 50 8.2 46.7
18:50 1015 29.97 844 24.92 18.3 64.9 52 8.4 47
18:55 1015 29.97 844 24.92 18 64.3 54 8.5 47.3
19:00 1015 29.97 844 24.92 17.6 63.7 54 8.2 46.8
19:05 1015 29.97 844 24.92 17.5 63.4 53 7.9 46.3
19:10 1015 29.97 844 24.92 17.5 63.4 53 7.8 46
19:15 1015 29.97 844 24.92 17.5 63.5 53 7.9 46.3
19:20 1015 29.97 844 24.92 17.5 63.6 52 7.7 45.8
19:25 1015 29.97 844 24.92 17.6 63.6 52 7.6 45.7
19:30 1015 29.97 844 24.92 17.8 64 51 7.6 45.6
19:35 1015 29.97 844 24.92 17.8 64.1 51 7.6 45.6
19:40 1015 29.97 844 24.92 17.9 64.1 52 7.9 46.3
19:45 1015 29.97 844 24.92 18 64.3 51 7.8 46.1
19:50 1015 29.97 845 24.95 18.1 64.5 50 7.5 45.5
19:55 1015 29.97 845 24.95 18.2 64.7 49 7.3 45.1
20:00 1016 30 845 24.95 18.3 64.9 50 7.8 46.1
20:05 1016 30 845 24.95 18.1 64.6 54 8.6 47.6
20:10 1016 30 845 24.95 17.3 63.2 58 8.9 48.1
20:15 1016 30 845 24.95 16.9 62.4 61 9.3 48.8
20:20 1016 30 845 24.95 16.6 62 65 10.2 50.4
20:25 1016 30 845 24.95 16.3 61.4 66 9.9 49.9
20:30 1016 30 845 24.95 16 60.7 68 10.2 50.3
20:35 1016 30 845 24.95 15.9 60.6 69 10.2 50.3
20:40 1016 30 845 24.95 15.5 60 71 10.4 50.8
20:45 1016 30 845 24.95 15.1 59.1 72 10.2 50.3
20:50 1016 30 845 24.95 15 58.9 72 9.9 49.9
20:55 1016 30 845 24.95 15 59 70 9.7 49.5
21:00 1016 30 845 24.95 15.1 59.2 71 9.9 49.9
21:05 1016 30 845 24.95 15.1 59.2 72 10.1 50.2
21:10 1016 30 846 24.98 15 59 72 10.1 50.2
21:15 1016 30 846 24.98 15 59 71 9.8 49.7
21:20 1016 30 846 24.98 15 59 69 9.4 48.9
21:25 1016 30 846 24.98 15 59.1 71 9.8 49.6
21:30 1016 30 846 24.98 14.9 58.9 71 9.7 49.5
21:35 1016 30 846 24.98 14.9 58.9 72 9.9 49.8
21:40 1016 30 846 24.98 14.8 58.7 73 10.1 50.1
21:45 1016 30 846 24.98 14.6 58.3 73 9.9 49.9
21:50 1016 30 846 24.98 14.6 58.2 74 10 50
21:55 1016 30 846 24.98 14.5 58.1 72 9.6 49.2
22:00 1016 30 846 24.98 14.5 58.2 72 9.7 49.4
22:05 1016 30 846 24.98 14.5 58.1 73 9.7 49.4
22:10 1016 30 846 24.98 14.4 57.9 74 9.8 49.7
22:15 1016 30 846 24.98 14.3 57.7 74 9.7 49.5
22:20 1016 30 845 24.95 14.3 57.7 73 9.6 49.2
22:25 1016 30 845 24.95 14.3 57.8 74 9.8 49.6
22:30 1016 30 845 24.95 14.3 57.7 74 9.6 49.3
22:35 1016 30 846 24.98 14.3 57.7 73 9.5 49.1
22:40 1016 30 846 24.98 14.3 57.8 72 9.4 49
22:45 1016 30 846 24.98 14.5 58.1 71 9.4 48.9
22:50 1016 30 846 24.98 14.6 58.2 70 9.3 48.7
22:55 1016 30 845 24.95 14.7 58.4 71 9.6 49.3
23:00 1016 30 845 24.95 14.7 58.5 72 9.7 49.5
23:05 1016 30 845 24.95 14.5 58.2 72 9.6 49.2
23:10 1016 30 846 24.98 14.5 58.2 71 9.4 48.9
23:15 1016 30 846 24.98 14.5 58.2 74 10 49.9
23:20 1016 30 846 24.98 14.5 58.1 73 9.7 49.4
23:25 1017 30.03 846 24.98 14.5 58.1 74 9.9 49.9
23:30 1017 30.03 846 24.98 14.4 57.9 76 10.2 50.4
23:35 1017 30.03 846 24.98 14.3 57.7 75 9.9 49.8
23:40 1017 30.03 846 24.98 14.4 57.8 76 10.2 50.3
23:45 1017 30.03 846 24.98 14.4 58 77 10.4 50.8
23:50 1017 30.03 847 25.01 14.3 57.8 77 10.4 50.8
23:55 1018 30.06 847 25.01 14.2 57.6 80 10.8 51.4
24:00 1018 30.06 847 25.01 14 57.2 78 10.3 50.6